createdAt,value
2023-01-20T00:00:30.771Z,99517.00
2023-01-20T00:02:58.118Z,99517.00
2023-01-20T00:05:25.454Z,99527.00
2023-01-20T00:07:52.789Z,99524.00
2023-01-20T00:10:20.072Z,99519.00
2023-01-20T00:12:47.287Z,99516.00
2023-01-20T00:15:15.192Z,99524.00
2023-01-20T00:17:43.344Z,99524.00
2023-01-20T00:20:11.899Z,99532.00
2023-01-20T00:22:41.618Z,99535.00
2023-01-20T00:25:10.233Z,99536.00
2023-01-20T00:27:37.487Z,99540.00
2023-01-20T00:30:05.765Z,99538.00
2023-01-20T00:32:38.403Z,99543.00
2023-01-20T00:35:07.796Z,99545.00
2023-01-20T00:37:35.018Z,99553.00
2023-01-20T00:40:02.211Z,99544.00
2023-01-20T00:42:29.617Z,99554.00
2023-01-20T00:44:56.851Z,99563.00
2023-01-20T00:47:24.584Z,99565.00
2023-01-20T00:49:51.928Z,99567.00
2023-01-20T00:52:19.837Z,99574.00
2023-01-20T00:54:47.071Z,99580.00
2023-01-20T00:57:14.283Z,99581.00
2023-01-20T00:59:41.507Z,99585.00
2023-01-20T01:02:08.858Z,99579.00
2023-01-20T01:04:36.171Z,99586.00
2023-01-20T01:07:03.519Z,99590.00
2023-01-20T01:09:31.701Z,99601.00
2023-01-20T01:11:58.960Z,99594.00
2023-01-20T01:14:26.278Z,99602.00
2023-01-20T01:16:53.625Z,99610.00
2023-01-20T01:19:21.137Z,99617.00
2023-01-20T01:21:48.383Z,99615.00
2023-01-20T01:24:15.657Z,99625.00
2023-01-20T01:26:43.626Z,99627.00
2023-01-20T01:29:10.898Z,99634.00
2023-01-20T01:31:38.436Z,99626.00
2023-01-20T01:34:05.752Z,99628.00
2023-01-20T01:36:33.033Z,99625.00
2023-01-20T01:39:00.317Z,99632.00
2023-01-20T01:41:27.607Z,99633.00
2023-01-20T01:44:04.927Z,99637.00
2023-01-20T01:46:32.565Z,99644.00
2023-01-20T01:49:03.530Z,99646.00
2023-01-20T01:51:34.817Z,99647.00
2023-01-20T01:54:07.842Z,99643.00
2023-01-20T01:56:35.630Z,99650.00
2023-01-20T01:59:04.509Z,99647.00
2023-01-20T02:01:33.529Z,99654.00
2023-01-20T02:04:04.331Z,99666.00
2023-01-20T02:06:35.064Z,99657.00
2023-01-20T02:09:04.027Z,99659.00
2023-01-20T02:11:35.219Z,99661.00
2023-01-20T02:14:03.286Z,99659.00
2023-01-20T02:16:41.602Z,99654.00
2023-01-20T02:19:30.531Z,99659.00
2023-01-20T02:22:11.275Z,99670.00
2023-01-20T02:25:13.077Z,99671.00
2023-01-20T02:28:13.581Z,99666.00
2023-01-20T02:31:08.564Z,99669.00
2023-01-20T02:33:42.472Z,99669.00
2023-01-20T02:36:11.331Z,99676.00
2023-01-20T02:38:45.212Z,99672.00
2023-01-20T02:41:17.613Z,99672.00
2023-01-20T02:43:50.122Z,99684.00
2023-01-20T02:46:25.138Z,99684.00
2023-01-20T02:48:56.759Z,99681.00
2023-01-20T02:51:29.293Z,99686.00
2023-01-20T02:54:00.456Z,99689.00
2023-01-20T02:56:29.769Z,99682.00
2023-01-20T02:59:00.685Z,99691.00
2023-01-20T03:01:32.920Z,99691.00
2023-01-20T03:04:03.549Z,99689.00
2023-01-20T03:06:36.179Z,99684.00
2023-01-20T03:09:07.881Z,99696.00
2023-01-20T03:11:38.236Z,99705.00
2023-01-20T03:14:08.729Z,99699.00
2023-01-20T03:16:36.394Z,99697.00
2023-01-20T03:19:04.400Z,99705.00
2023-01-20T03:21:32.614Z,99703.00
2023-01-20T03:24:01.925Z,99712.00
2023-01-20T03:26:30.144Z,99715.00
2023-01-20T03:28:58.197Z,99719.00
2023-01-20T03:31:28.515Z,99728.00
2023-01-20T03:33:57.605Z,99720.00
2023-01-20T03:36:28.599Z,99717.00
2023-01-20T03:38:57.952Z,99730.00
2023-01-20T03:41:35.935Z,99729.00
2023-01-20T03:44:12.168Z,99736.00
2023-01-20T03:46:45.829Z,99735.00
2023-01-20T03:49:19.180Z,99746.00
2023-01-20T03:51:56.625Z,99739.00
2023-01-20T03:54:28.015Z,99753.00
2023-01-20T03:57:03.334Z,99759.00
2023-01-20T03:59:33.123Z,99746.00
2023-01-20T04:02:05.632Z,99751.00
2023-01-20T04:04:36.234Z,99758.00
2023-01-20T04:07:06.060Z,99753.00
2023-01-20T04:09:38.671Z,99758.00
2023-01-20T04:12:06.425Z,99750.00
2023-01-20T04:14:35.509Z,99752.00
2023-01-20T04:17:04.477Z,99759.00
2023-01-20T04:19:31.936Z,99756.00
2023-01-20T04:22:04.782Z,99762.00
2023-01-20T04:24:37.619Z,99770.00
2023-01-20T04:27:04.881Z,99763.00
2023-01-20T04:29:32.131Z,99758.00
2023-01-20T04:32:00.418Z,99770.00
2023-01-20T04:34:27.787Z,99767.00
2023-01-20T04:36:55.183Z,99768.00
2023-01-20T04:39:22.503Z,99770.00
2023-01-20T04:41:50.539Z,99782.00
2023-01-20T04:44:17.812Z,99785.00
2023-01-20T04:46:46.632Z,99784.00
2023-01-20T04:49:14.087Z,99789.00
2023-01-20T04:51:41.571Z,99792.00
2023-01-20T04:54:08.815Z,99797.00
2023-01-20T04:56:36.089Z,99806.00
2023-01-20T04:59:04.164Z,99809.00
2023-01-20T05:01:31.542Z,99794.00
2023-01-20T05:03:58.877Z,99803.00
2023-01-20T05:06:26.184Z,99797.00
2023-01-20T05:08:53.379Z,99804.00
2023-01-20T05:11:20.665Z,99804.00
2023-01-20T05:13:47.906Z,99806.00
2023-01-20T05:16:21.086Z,99818.00
2023-01-20T05:18:48.277Z,99821.00
2023-01-20T05:21:15.496Z,99826.00
2023-01-20T05:23:42.849Z,99828.00
2023-01-20T05:26:10.667Z,99831.00
2023-01-20T05:28:37.933Z,99841.00
2023-01-20T05:31:05.292Z,99835.00
2023-01-20T05:33:33.358Z,99839.00
2023-01-20T05:36:04.039Z,99842.00
2023-01-20T05:38:31.260Z,99841.00
2023-01-20T05:41:01.632Z,99847.00
2023-01-20T05:43:29.244Z,99848.00
2023-01-20T05:45:56.601Z,99843.00
2023-01-20T05:48:24.180Z,99852.00
2023-01-20T05:50:52.493Z,99862.00
2023-01-20T05:53:20.186Z,99858.00
2023-01-20T05:55:47.790Z,99863.00
2023-01-20T05:58:15.135Z,99862.00
2023-01-20T06:00:42.407Z,99859.00
2023-01-20T06:03:09.673Z,99868.00
2023-01-20T06:05:37.195Z,99875.00
2023-01-20T06:08:05.733Z,99869.00
2023-01-20T06:10:32.975Z,99871.00
2023-01-20T06:13:00.200Z,99871.00
2023-01-20T06:15:28.819Z,99886.00
2023-01-20T06:17:56.171Z,99881.00
2023-01-20T06:20:23.481Z,99882.00
2023-01-20T06:22:55.179Z,99885.00
2023-01-20T06:25:23.122Z,99883.00
2023-01-20T06:27:50.442Z,99892.00
2023-01-20T06:30:18.212Z,99893.00
2023-01-20T06:32:47.373Z,99889.00
2023-01-20T06:35:15.051Z,99900.00
2023-01-20T06:37:42.476Z,99910.00
2023-01-20T06:40:11.037Z,99913.00
2023-01-20T06:42:38.907Z,99908.00
2023-01-20T06:45:07.158Z,99911.00
2023-01-20T06:47:34.387Z,99916.00
2023-01-20T06:50:01.770Z,99917.00
2023-01-20T06:52:29.057Z,99923.00
2023-01-20T06:54:56.313Z,99922.00
2023-01-20T06:57:23.618Z,99922.00
2023-01-20T06:59:51.586Z,99920.00
2023-01-20T07:02:18.900Z,99934.00
2023-01-20T07:04:46.136Z,99942.00
2023-01-20T07:07:13.589Z,99941.00
2023-01-20T07:09:40.819Z,99944.00
2023-01-20T07:12:08.099Z,99950.00
2023-01-20T07:14:35.337Z,99951.00
2023-01-20T07:17:03.228Z,99955.00
2023-01-20T07:19:30.555Z,99957.00
2023-01-20T07:21:57.958Z,99963.00
2023-01-20T07:24:25.226Z,99968.00
2023-01-20T07:26:53.317Z,99963.00
2023-01-20T07:29:20.695Z,99969.00
2023-01-20T07:31:47.980Z,99981.00
2023-01-20T07:34:15.973Z,99983.00
2023-01-20T07:36:43.250Z,99994.00
2023-01-20T07:39:12.287Z,100000.00
2023-01-20T07:41:39.742Z,100010.00
2023-01-20T07:44:06.963Z,100006.00
2023-01-20T07:46:34.223Z,100020.00
2023-01-20T07:49:01.477Z,100019.00
2023-01-20T07:51:29.391Z,100011.00
2023-01-20T07:53:56.656Z,100015.00
2023-01-20T07:56:25.666Z,100022.00
2023-01-20T07:58:54.191Z,100013.00
2023-01-20T08:01:24.015Z,100020.00
2023-01-20T08:03:51.771Z,100023.00
2023-01-20T08:06:21.360Z,100029.00
2023-01-20T08:08:49.521Z,100032.00
2023-01-20T08:11:18.638Z,100029.00
2023-01-20T08:13:46.591Z,100033.00
2023-01-20T08:16:15.930Z,100035.00
2023-01-20T08:18:43.809Z,100036.00
2023-01-20T08:21:18.983Z,100037.00
2023-01-20T08:23:46.200Z,100044.00
2023-01-20T08:26:14.484Z,100040.00
2023-01-20T08:28:41.823Z,100055.00
2023-01-20T08:31:10.836Z,100050.00
2023-01-20T08:33:38.400Z,100060.00
2023-01-20T08:36:07.781Z,100066.00
2023-01-20T08:38:35.432Z,100067.00
2023-01-20T08:41:05.866Z,100066.00
2023-01-20T08:43:33.882Z,100076.00
2023-01-20T08:46:02.102Z,100069.00
2023-01-20T08:48:29.582Z,100081.00
2023-01-20T08:50:57.036Z,100081.00
2023-01-20T08:53:24.323Z,100098.00
2023-01-20T08:55:58.624Z,100092.00
2023-01-20T08:58:26.859Z,100108.00
2023-01-20T09:00:55.499Z,100095.00
2023-01-20T09:03:23.457Z,100101.00
2023-01-20T09:05:51.057Z,100102.00
2023-01-20T09:08:18.914Z,100119.00
2023-01-20T09:10:46.763Z,100119.00
2023-01-20T09:13:14.006Z,100123.00
2023-01-20T09:15:41.264Z,100114.00
2023-01-20T09:18:09.243Z,100116.00
2023-01-20T09:20:36.796Z,100126.00
2023-01-20T09:23:04.064Z,100120.00
2023-01-20T09:25:31.383Z,100126.00
2023-01-20T09:28:00.993Z,100126.00
2023-01-20T09:30:28.386Z,100125.00
2023-01-20T09:32:57.587Z,100135.00
2023-01-20T09:35:25.964Z,100135.00
2023-01-20T09:38:11.783Z,100131.00
2023-01-20T09:41:06.619Z,100131.00
2023-01-20T09:43:54.096Z,100133.00
2023-01-20T09:46:30.603Z,100133.00
2023-01-20T09:49:30.154Z,100131.00
2023-01-20T09:52:24.563Z,100137.00
2023-01-20T09:54:58.087Z,100140.00
2023-01-20T09:57:27.743Z,100138.00
2023-01-20T10:00:03.379Z,100138.00
2023-01-20T10:02:34.714Z,100135.00
2023-01-20T10:05:10.733Z,100141.00
2023-01-20T10:07:44.623Z,100147.00
2023-01-20T10:10:19.045Z,100132.00
2023-01-20T10:12:49.576Z,100138.00
2023-01-20T10:15:23.539Z,100146.00
2023-01-20T10:17:54.787Z,100147.00
2023-01-20T10:20:29.114Z,100149.00
2023-01-20T10:23:03.418Z,100148.00
2023-01-20T10:25:37.899Z,100142.00
2023-01-20T10:28:10.715Z,100137.00
2023-01-20T10:30:38.044Z,100153.00
2023-01-20T10:33:10.317Z,100140.00
2023-01-20T10:35:41.678Z,100145.00
2023-01-20T10:38:19.250Z,100156.00
2023-01-20T10:40:52.151Z,100149.00
2023-01-20T10:43:19.961Z,100144.00
2023-01-20T10:46:01.055Z,100153.00
2023-01-20T10:48:48.116Z,100147.00
2023-01-20T10:51:20.516Z,100149.00
2023-01-20T10:54:02.071Z,100151.00
2023-01-20T10:56:36.347Z,100159.00
2023-01-20T10:59:09.613Z,100159.00
2023-01-20T11:01:37.060Z,100166.00
2023-01-20T11:04:04.905Z,100166.00
2023-01-20T11:06:32.496Z,100180.00
2023-01-20T11:09:16.832Z,100174.00
2023-01-20T11:11:44.143Z,100171.00
2023-01-20T11:14:11.358Z,100185.00
2023-01-20T11:16:40.449Z,100182.00
2023-01-20T11:19:07.832Z,100186.00
2023-01-20T11:21:36.470Z,100188.00
2023-01-20T11:24:25.662Z,100183.00
2023-01-20T11:27:01.839Z,100197.00
2023-01-20T11:29:34.599Z,100190.00
2023-01-20T11:32:02.522Z,100194.00
2023-01-20T11:34:31.764Z,100202.00
2023-01-20T11:37:18.761Z,100184.00
2023-01-20T11:39:59.583Z,100186.00
2023-01-20T11:42:28.537Z,100200.00
2023-01-20T11:45:08.525Z,100204.00
2023-01-20T11:47:44.941Z,100208.00
2023-01-20T11:50:27.831Z,100211.00
2023-01-20T11:53:13.152Z,100219.00
2023-01-20T11:55:48.172Z,100213.00
2023-01-20T11:58:19.086Z,100222.00
2023-01-20T12:00:46.634Z,100218.00
2023-01-20T12:03:58.805Z,100230.00
2023-01-20T12:06:28.487Z,100230.00
2023-01-20T12:09:00.884Z,100219.00
2023-01-20T12:11:33.707Z,100221.00
2023-01-20T12:14:22.649Z,100231.00
2023-01-20T12:16:57.461Z,100228.00
2023-01-20T12:19:32.091Z,100241.00
2023-01-20T12:22:05.924Z,100237.00
2023-01-20T12:24:54.748Z,100240.00
2023-01-20T12:27:26.727Z,100255.00
2023-01-20T12:29:56.856Z,100250.00
2023-01-20T12:32:24.162Z,100254.00
2023-01-20T12:34:51.443Z,100257.00
2023-01-20T12:37:24.955Z,100259.00
2023-01-20T12:40:08.379Z,100264.00
2023-01-20T12:43:11.126Z,100266.00
2023-01-20T12:45:52.861Z,100259.00
2023-01-20T12:48:34.727Z,100274.00
2023-01-20T12:51:19.365Z,100273.00
2023-01-20T12:54:15.656Z,100275.00
2023-01-20T12:56:52.624Z,100283.00
2023-01-20T12:59:34.864Z,100288.00
2023-01-20T13:02:26.740Z,100290.00
2023-01-20T13:05:11.448Z,100293.00
2023-01-20T13:07:52.315Z,100294.00
2023-01-20T13:10:51.192Z,100298.00
2023-01-20T13:13:30.011Z,100297.00
2023-01-20T13:16:03.309Z,100302.00
2023-01-20T13:18:39.696Z,100300.00
2023-01-20T13:21:10.092Z,100306.00
2023-01-20T13:23:37.908Z,100302.00
2023-01-20T13:26:06.026Z,100303.00
2023-01-20T13:28:33.868Z,100307.00
2023-01-20T13:31:22.302Z,100299.00
2023-01-20T13:33:50.371Z,100301.00
2023-01-20T13:36:19.500Z,100309.00
2023-01-20T13:38:48.371Z,100303.00
2023-01-20T13:41:48.445Z,100314.00
2023-01-20T13:44:34.551Z,100311.00
2023-01-20T13:47:02.731Z,100312.00
2023-01-20T13:49:47.655Z,100314.00
2023-01-20T13:52:15.532Z,100319.00
2023-01-20T13:54:45.435Z,100313.00
2023-01-20T13:57:36.032Z,100322.00
2023-01-20T14:00:15.800Z,100318.00
2023-01-20T14:02:43.166Z,100332.00
2023-01-20T14:05:27.830Z,100330.00
2023-01-20T14:07:55.724Z,100323.00
2023-01-20T14:10:23.463Z,100324.00
2023-01-20T14:12:50.689Z,100323.00
2023-01-20T14:15:31.332Z,100324.00
2023-01-20T14:18:00.113Z,100337.00
2023-01-20T14:20:31.100Z,100339.00
2023-01-20T14:23:24.120Z,100335.00
2023-01-20T14:25:57.995Z,100333.00
2023-01-20T14:28:25.350Z,100348.00
2023-01-20T14:31:12.600Z,100358.00
2023-01-20T14:33:48.605Z,100356.00
2023-01-20T14:36:21.111Z,100348.00
2023-01-20T14:38:58.035Z,100359.00
2023-01-20T14:41:29.073Z,100355.00
2023-01-20T14:43:57.088Z,100352.00
2023-01-20T14:46:25.843Z,100365.00
2023-01-20T14:48:55.366Z,100372.00
2023-01-20T14:51:23.706Z,100370.00
2023-01-20T14:54:34.858Z,100377.00
2023-01-20T14:57:19.195Z,100368.00
2023-01-20T14:59:46.913Z,100370.00
2023-01-20T15:02:33.257Z,100370.00
2023-01-20T15:05:03.752Z,100389.00
2023-01-20T15:07:46.620Z,100389.00
2023-01-20T15:10:22.846Z,100393.00
2023-01-20T15:13:15.636Z,100394.00
2023-01-20T15:15:48.687Z,100401.00
2023-01-20T15:18:39.452Z,100413.00
2023-01-20T15:21:32.793Z,100419.00
2023-01-20T15:24:17.313Z,100427.00
2023-01-20T15:27:02.474Z,100421.00
2023-01-20T15:29:36.268Z,100429.00
2023-01-20T15:32:14.684Z,100424.00
2023-01-20T15:34:44.456Z,100422.00
2023-01-20T15:37:19.721Z,100432.00
2023-01-20T15:39:52.579Z,100438.00
2023-01-20T15:42:23.966Z,100430.00
2023-01-20T15:44:53.421Z,100438.00
2023-01-20T15:47:29.070Z,100455.00
2023-01-20T15:50:00.659Z,100458.00
2023-01-20T15:52:32.348Z,100456.00
2023-01-20T15:55:03.164Z,100462.00
2023-01-20T15:57:32.580Z,100463.00
2023-01-20T16:00:03.264Z,100467.00
2023-01-20T16:02:35.364Z,100468.00
2023-01-20T16:05:05.861Z,100471.00
2023-01-20T16:07:38.473Z,100464.00
2023-01-20T16:10:21.011Z,100474.00
2023-01-20T16:15:56.014Z,100482.00
2023-01-20T16:18:25.429Z,100475.00
2023-01-20T16:20:54.114Z,100478.00
2023-01-20T16:23:22.654Z,100478.00
2023-01-20T16:25:51.745Z,100485.00
2023-01-20T16:28:23.360Z,100485.00
2023-01-20T16:30:53.652Z,100485.00
2023-01-20T16:33:23.560Z,100486.00
2023-01-20T16:35:53.021Z,100490.00
2023-01-20T16:38:23.025Z,100494.00
2023-01-20T16:40:53.927Z,100499.00
2023-01-20T16:43:22.935Z,100506.00
2023-01-20T16:45:54.098Z,100510.00
2023-01-20T16:48:23.037Z,100523.00
2023-01-20T16:50:54.257Z,100533.00
2023-01-20T16:53:25.382Z,100529.00
2023-01-20T16:55:57.250Z,100534.00
2023-01-20T16:58:25.371Z,100537.00
2023-01-20T17:00:55.775Z,100540.00
2023-01-20T17:03:27.092Z,100546.00
2023-01-20T17:05:56.949Z,100546.00
2023-01-20T17:08:25.123Z,100549.00
2023-01-20T17:10:57.929Z,100546.00
2023-01-20T17:13:25.725Z,100558.00
2023-01-20T17:16:02.132Z,100556.00
2023-01-20T17:18:32.693Z,100565.00
2023-01-20T17:21:05.598Z,100568.00
2023-01-20T17:23:33.459Z,100568.00
2023-01-20T17:26:04.042Z,100572.00
2023-01-20T17:28:37.343Z,100571.00
2023-01-20T17:31:08.185Z,100575.00
2023-01-20T17:33:36.536Z,100577.00
2023-01-20T17:36:08.203Z,100579.00
2023-01-20T17:38:37.342Z,100572.00
2023-01-20T17:41:15.552Z,100582.00
2023-01-20T17:43:46.150Z,100579.00
2023-01-20T17:46:16.176Z,100577.00
2023-01-20T17:48:44.742Z,100581.00
2023-01-20T17:51:14.237Z,100593.00
2023-01-20T17:53:45.445Z,100577.00
2023-01-20T17:56:17.031Z,100595.00
2023-01-20T17:59:08.905Z,100587.00
2023-01-20T18:01:48.749Z,100607.00
2023-01-20T18:04:34.325Z,100598.00
2023-01-20T18:07:06.472Z,100603.00
2023-01-20T18:09:34.597Z,100615.00
2023-01-20T18:12:05.470Z,100594.00
2023-01-20T18:14:36.244Z,100611.00
2023-01-20T18:17:18.649Z,100608.00
2023-01-20T18:22:51.805Z,100608.00
2023-01-20T18:25:25.622Z,100610.00
2023-01-20T18:28:06.851Z,100615.00
2023-01-20T18:30:35.314Z,100627.00
2023-01-20T18:33:04.197Z,100627.00
2023-01-20T18:35:44.731Z,100636.00
2023-01-20T18:38:16.242Z,100627.00
2023-01-20T18:40:48.376Z,100637.00
2023-01-20T18:43:26.038Z,100640.00
2023-01-20T18:46:01.362Z,100629.00
2023-01-20T18:52:00.162Z,100636.00
2023-01-20T18:54:37.691Z,100630.00
2023-01-20T18:57:12.212Z,100641.00
2023-01-20T18:59:51.947Z,100648.00
2023-01-20T19:02:53.173Z,100647.00
2023-01-20T19:05:40.370Z,100645.00
2023-01-20T19:08:08.172Z,100648.00
2023-01-20T19:10:37.285Z,100653.00
2023-01-20T19:13:05.151Z,100653.00
2023-01-20T19:15:37.990Z,100654.00
2023-01-20T19:18:05.827Z,100660.00
2023-01-20T19:20:36.224Z,100655.00
2023-01-20T19:23:07.306Z,100659.00
2023-01-20T19:25:36.586Z,100662.00
2023-01-20T19:28:07.938Z,100658.00
2023-01-20T19:30:44.921Z,100662.00
2023-01-20T19:33:29.678Z,100664.00
2023-01-20T19:38:55.176Z,100653.00
2023-01-20T19:41:25.675Z,100656.00
2023-01-20T19:44:11.561Z,100648.00
2023-01-20T19:46:41.539Z,100660.00
2023-01-20T19:49:17.759Z,100661.00
2023-01-20T19:51:46.031Z,100659.00
2023-01-20T19:54:17.958Z,100663.00
2023-01-20T19:56:46.480Z,100666.00
2023-01-20T19:59:14.574Z,100670.00
2023-01-20T20:01:44.722Z,100670.00
2023-01-20T20:04:14.177Z,100677.00
2023-01-20T20:06:45.646Z,100683.00
2023-01-20T20:12:05.967Z,100688.00
2023-01-20T20:14:34.255Z,100693.00
2023-01-20T20:17:03.994Z,100685.00
2023-01-20T20:19:32.177Z,100693.00
2023-01-20T20:22:02.769Z,100696.00
2023-01-20T20:24:34.611Z,100690.00
2023-01-20T20:27:02.907Z,100708.00
2023-01-20T20:29:31.366Z,100711.00
2023-01-20T20:32:02.866Z,100710.00
2023-01-20T20:34:33.130Z,100715.00
2023-01-20T20:37:01.165Z,100701.00
2023-01-20T20:39:32.330Z,100704.00
2023-01-20T20:42:00.521Z,100714.00
2023-01-20T20:44:30.834Z,100716.00
2023-01-20T20:46:58.866Z,100724.00
2023-01-20T20:49:26.844Z,100713.00
2023-01-20T20:51:57.928Z,100726.00
2023-01-20T20:54:30.220Z,100724.00
2023-01-20T20:56:58.022Z,100713.00
2023-01-20T20:59:25.997Z,100724.00
2023-01-20T21:01:53.936Z,100729.00
2023-01-20T21:04:23.070Z,100739.00
2023-01-20T21:06:50.973Z,100730.00
2023-01-20T21:09:20.133Z,100736.00
2023-01-20T21:11:48.167Z,100746.00
2023-01-20T21:14:18.181Z,100738.00
2023-01-20T21:16:49.797Z,100736.00
2023-01-20T21:19:17.470Z,100745.00
2023-01-20T21:21:46.813Z,100744.00
2023-01-20T21:24:14.565Z,100747.00
2023-01-20T21:26:43.528Z,100752.00
2023-01-20T21:29:11.720Z,100754.00
2023-01-20T21:31:46.755Z,100756.00
2023-01-20T21:34:14.849Z,100758.00
2023-01-20T21:36:42.478Z,100757.00
2023-01-20T21:39:19.996Z,100769.00
2023-01-20T21:41:53.349Z,100768.00
2023-01-20T21:44:33.634Z,100765.00
2023-01-20T21:47:11.637Z,100769.00
2023-01-20T21:50:03.209Z,100774.00
2023-01-20T21:52:44.292Z,100781.00
2023-01-20T21:55:24.008Z,100780.00
2023-01-20T21:57:52.247Z,100785.00
2023-01-20T22:00:20.639Z,100779.00
2023-01-20T22:02:49.190Z,100784.00
2023-01-20T22:05:17.520Z,100784.00
2023-01-20T22:07:47.165Z,100788.00
2023-01-20T22:10:20.506Z,100792.00
2023-01-20T22:12:48.230Z,100797.00
2023-01-20T22:15:17.163Z,100797.00
2023-01-20T22:17:45.497Z,100799.00
2023-01-20T22:20:14.115Z,100802.00
2023-01-20T22:22:42.067Z,100799.00
2023-01-20T22:25:10.231Z,100798.00
2023-01-20T22:27:43.975Z,100808.00
2023-01-20T22:30:18.912Z,100808.00
2023-01-20T22:32:47.986Z,100801.00
2023-01-20T22:35:21.065Z,100809.00
2023-01-20T22:37:59.974Z,100809.00
2023-01-20T22:40:28.000Z,100805.00
2023-01-20T22:43:08.141Z,100806.00
2023-01-20T22:45:40.809Z,100813.00
2023-01-20T22:48:12.448Z,100812.00
2023-01-20T22:50:46.933Z,100826.00
2023-01-20T22:53:21.263Z,100817.00
2023-01-20T22:56:00.512Z,100819.00
2023-01-20T22:58:30.450Z,100810.00
2023-01-20T23:00:58.612Z,100806.00
2023-01-20T23:03:30.807Z,100814.00
2023-01-20T23:05:59.816Z,100806.00
2023-01-20T23:08:29.564Z,100817.00
2023-01-20T23:11:02.553Z,100813.00
2023-01-20T23:13:51.799Z,100818.00
2023-01-20T23:16:22.559Z,100812.00
2023-01-20T23:19:07.944Z,100817.00
2023-01-20T23:21:46.712Z,100816.00
2023-01-20T23:24:15.363Z,100812.00
2023-01-20T23:26:43.072Z,100822.00
2023-01-20T23:29:11.027Z,100814.00
2023-01-20T23:31:41.379Z,100829.00
2023-01-20T23:34:19.524Z,100833.00
2023-01-20T23:36:53.067Z,100833.00
2023-01-20T23:39:23.407Z,100826.00
2023-01-20T23:41:51.231Z,100828.00
2023-01-20T23:44:18.764Z,100834.00
2023-01-20T23:46:52.132Z,100839.00
2023-01-20T23:49:22.600Z,100845.00
2023-01-20T23:51:54.948Z,100851.00
2023-01-20T23:54:25.327Z,100856.00
2023-01-20T23:56:54.075Z,100845.00
2023-01-20T23:59:21.965Z,100857.00
